sensor_id;sensor_type;location;lat;lon;timestamp;temperature;humidity
22114;DHT22;11223;49.968;9.062;2023-11-22T00:02:20;4.60;99.90
22114;DHT22;11223;49.968;9.062;2023-11-22T00:04:46;4.60;99.90
22114;DHT22;11223;49.968;9.062;2023-11-22T00:07:11;4.50;99.90
22114;DHT22;11223;49.968;9.062;2023-11-22T00:09:37;4.40;99.90
22114;DHT22;11223;49.968;9.062;2023-11-22T00:12:03;4.40;99.90
22114;DHT22;11223;49.968;9.062;2023-11-22T00:14:28;4.30;99.90
22114;DHT22;11223;49.968;9.062;2023-11-22T00:16:54;4.20;99.90
22114;DHT22;11223;49.968;9.062;2023-11-22T00:19:19;4.20;99.90
22114;DHT22;11223;49.968;9.062;2023-11-22T00:21:48;4.10;99.90
22114;DHT22;11223;49.968;9.062;2023-11-22T00:24:13;4.00;99.90
22114;DHT22;11223;49.968;9.062;2023-11-22T00:26:39;4.00;99.90
22114;DHT22;11223;49.968;9.062;2023-11-22T00:29:04;4.00;99.90
22114;DHT22;11223;49.968;9.062;2023-11-22T00:31:30;3.90;99.90
22114;DHT22;11223;49.968;9.062;2023-11-22T00:33:56;3.90;99.90
22114;DHT22;11223;49.968;9.062;2023-11-22T00:36:21;3.80;99.90
22114;DHT22;11223;49.968;9.062;2023-11-22T00:38:47;3.80;99.90
22114;DHT22;11223;49.968;9.062;2023-11-22T00:41:13;3.80;99.90
22114;DHT22;11223;49.968;9.062;2023-11-22T00:43:41;3.70;99.90
22114;DHT22;11223;49.968;9.062;2023-11-22T00:46:06;3.70;99.90
22114;DHT22;11223;49.968;9.062;2023-11-22T00:48:32;3.70;99.90
22114;DHT22;11223;49.968;9.062;2023-11-22T00:50:57;3.60;99.90
22114;DHT22;11223;49.968;9.062;2023-11-22T00:53:23;3.60;99.90
22114;DHT22;11223;49.968;9.062;2023-11-22T00:55:48;3.60;99.90
22114;DHT22;11223;49.968;9.062;2023-11-22T00:58:14;3.50;99.90
22114;DHT22;11223;49.968;9.062;2023-11-22T01:00:40;3.50;99.90
22114;DHT22;11223;49.968;9.062;2023-11-22T01:03:06;3.40;99.90
22114;DHT22;11223;49.968;9.062;2023-11-22T01:05:34;3.40;99.90
22114;DHT22;11223;49.968;9.062;2023-11-22T01:07:59;3.40;99.90
22114;DHT22;11223;49.968;9.062;2023-11-22T01:10:25;3.30;99.90
22114;DHT22;11223;49.968;9.062;2023-11-22T01:12:50;3.30;99.90
22114;DHT22;11223;49.968;9.062;2023-11-22T01:15:16;3.20;99.90
22114;DHT22;11223;49.968;9.062;2023-11-22T01:17:41;3.20;99.90
22114;DHT22;11223;49.968;9.062;2023-11-22T01:20:07;3.20;99.90
22114;DHT22;11223;49.968;9.062;2023-11-22T01:22:36;3.20;99.90
22114;DHT22;11223;49.968;9.062;2023-11-22T01:25:03;3.10;99.90
22114;DHT22;11223;49.968;9.062;2023-11-22T01:27:29;3.10;99.90
22114;DHT22;11223;49.968;9.062;2023-11-22T01:29:55;3.00;99.90
22114;DHT22;11223;49.968;9.062;2023-11-22T01:32:21;3.00;99.90
22114;DHT22;11223;49.968;9.062;2023-11-22T01:34:46;2.90;99.90
22114;DHT22;11223;49.968;9.062;2023-11-22T01:37:12;2.90;99.90
22114;DHT22;11223;49.968;9.062;2023-11-22T01:39:39;2.80;99.90
22114;DHT22;11223;49.968;9.062;2023-11-22T01:42:06;2.80;99.90
22114;DHT22;11223;49.968;9.062;2023-11-22T01:44:31;2.70;99.90
22114;DHT22;11223;49.968;9.062;2023-11-22T01:46:57;2.70;99.90
22114;DHT22;11223;49.968;9.062;2023-11-22T01:49:23;2.80;99.90
22114;DHT22;11223;49.968;9.062;2023-11-22T01:51:49;2.80;99.90
22114;DHT22;11223;49.968;9.062;2023-11-22T01:54:14;2.90;99.90
22114;DHT22;11223;49.968;9.062;2023-11-22T01:56:40;2.90;99.90
22114;DHT22;11223;49.968;9.062;2023-11-22T01:59:06;2.90;99.90
22114;DHT22;11223;49.968;9.062;2023-11-22T02:01:31;2.90;99.90
22114;DHT22;11223;49.968;9.062;2023-11-22T02:03:57;2.80;99.90
22114;DHT22;11223;49.968;9.062;2023-11-22T02:06:23;2.80;99.90
22114;DHT22;11223;49.968;9.062;2023-11-22T02:08:49;2.70;99.90
22114;DHT22;11223;49.968;9.062;2023-11-22T02:11:18;2.60;99.90
22114;DHT22;11223;49.968;9.062;2023-11-22T02:13:50;2.50;99.90
22114;DHT22;11223;49.968;9.062;2023-11-22T02:16:16;2.50;99.90
22114;DHT22;11223;49.968;9.062;2023-11-22T02:18:43;2.40;99.90
22114;DHT22;11223;49.968;9.062;2023-11-22T02:21:08;2.30;99.90
22114;DHT22;11223;49.968;9.062;2023-11-22T02:23:34;2.30;99.90
22114;DHT22;11223;49.968;9.062;2023-11-22T02:25:59;2.30;99.90
22114;DHT22;11223;49.968;9.062;2023-11-22T02:28:25;2.30;99.90
22114;DHT22;11223;49.968;9.062;2023-11-22T02:30:51;2.20;99.90
22114;DHT22;11223;49.968;9.062;2023-11-22T02:33:16;2.20;99.90
22114;DHT22;11223;49.968;9.062;2023-11-22T02:35:42;2.20;99.90
22114;DHT22;11223;49.968;9.062;2023-11-22T02:38:07;2.20;99.90
22114;DHT22;11223;49.968;9.062;2023-11-22T02:40:33;2.10;99.90
22114;DHT22;11223;49.968;9.062;2023-11-22T02:42:59;2.10;99.90
22114;DHT22;11223;49.968;9.062;2023-11-22T02:45:32;2.00;99.90
22114;DHT22;11223;49.968;9.062;2023-11-22T02:47:58;2.00;99.90
22114;DHT22;11223;49.968;9.062;2023-11-22T02:50:24;1.90;99.90
22114;DHT22;11223;49.968;9.062;2023-11-22T02:52:50;1.90;99.90
22114;DHT22;11223;49.968;9.062;2023-11-22T02:55:16;1.80;99.90
22114;DHT22;11223;49.968;9.062;2023-11-22T02:57:42;1.80;99.90
22114;DHT22;11223;49.968;9.062;2023-11-22T03:00:07;1.80;99.90
22114;DHT22;11223;49.968;9.062;2023-11-22T03:02:34;1.80;99.90
22114;DHT22;11223;49.968;9.062;2023-11-22T03:04:59;1.80;99.90
22114;DHT22;11223;49.968;9.062;2023-11-22T03:07:25;1.70;99.90
22114;DHT22;11223;49.968;9.062;2023-11-22T03:09:51;1.70;99.90
22114;DHT22;11223;49.968;9.062;2023-11-22T03:12:18;1.70;99.90
22114;DHT22;11223;49.968;9.062;2023-11-22T03:14:45;1.70;99.90
22114;DHT22;11223;49.968;9.062;2023-11-22T03:17:11;1.60;99.90
22114;DHT22;11223;49.968;9.062;2023-11-22T03:19:37;1.60;99.90
22114;DHT22;11223;49.968;9.062;2023-11-22T03:22:03;1.60;99.90
22114;DHT22;11223;49.968;9.062;2023-11-22T03:24:29;1.60;99.90
22114;DHT22;11223;49.968;9.062;2023-11-22T03:26:55;1.50;99.90
22114;DHT22;11223;49.968;9.062;2023-11-22T03:29:24;1.50;99.90
22114;DHT22;11223;49.968;9.062;2023-11-22T03:31:49;1.50;99.90
22114;DHT22;11223;49.968;9.062;2023-11-22T03:34:15;1.40;99.90
22114;DHT22;11223;49.968;9.062;2023-11-22T03:36:41;1.40;99.90
22114;DHT22;11223;49.968;9.062;2023-11-22T03:39:07;1.40;99.90
22114;DHT22;11223;49.968;9.062;2023-11-22T03:41:32;1.40;99.90
22114;DHT22;11223;49.968;9.062;2023-11-22T03:43:58;1.40;99.90
22114;DHT22;11223;49.968;9.062;2023-11-22T03:46:23;1.40;99.90
22114;DHT22;11223;49.968;9.062;2023-11-22T03:48:48;1.40;99.90
22114;DHT22;11223;49.968;9.062;2023-11-22T03:51:14;1.40;99.90
22114;DHT22;11223;49.968;9.062;2023-11-22T03:53:39;1.40;99.90
22114;DHT22;11223;49.968;9.062;2023-11-22T03:56:05;1.30;99.90
22114;DHT22;11223;49.968;9.062;2023-11-22T03:58:30;1.30;99.90
22114;DHT22;11223;49.968;9.062;2023-11-22T04:00:56;1.30;99.90
22114;DHT22;11223;49.968;9.062;2023-11-22T04:03:22;1.20;99.90
22114;DHT22;11223;49.968;9.062;2023-11-22T04:05:48;1.20;99.90
22114;DHT22;11223;49.968;9.062;2023-11-22T04:08:13;1.20;99.90
22114;DHT22;11223;49.968;9.062;2023-11-22T04:10:39;1.10;99.90
22114;DHT22;11223;49.968;9.062;2023-11-22T04:13:04;1.00;99.90
22114;DHT22;11223;49.968;9.062;2023-11-22T04:15:29;1.00;99.90
22114;DHT22;11223;49.968;9.062;2023-11-22T04:17:56;1.00;99.90
22114;DHT22;11223;49.968;9.062;2023-11-22T04:20:21;1.00;99.90
22114;DHT22;11223;49.968;9.062;2023-11-22T04:22:47;0.90;99.90
22114;DHT22;11223;49.968;9.062;2023-11-22T04:25:12;0.90;99.90
22114;DHT22;11223;49.968;9.062;2023-11-22T04:27:39;0.90;99.90
22114;DHT22;11223;49.968;9.062;2023-11-22T04:30:06;0.90;99.90
22114;DHT22;11223;49.968;9.062;2023-11-22T04:32:34;0.80;99.90
22114;DHT22;11223;49.968;9.062;2023-11-22T04:35:01;0.90;99.90
22114;DHT22;11223;49.968;9.062;2023-11-22T04:37:27;0.90;99.90
22114;DHT22;11223;49.968;9.062;2023-11-22T04:39:57;1.10;99.90
22114;DHT22;11223;49.968;9.062;2023-11-22T04:42:22;1.20;99.90
22114;DHT22;11223;49.968;9.062;2023-11-22T04:44:48;1.20;99.90
22114;DHT22;11223;49.968;9.062;2023-11-22T04:47:14;1.30;99.90
22114;DHT22;11223;49.968;9.062;2023-11-22T04:49:39;1.20;99.90
22114;DHT22;11223;49.968;9.062;2023-11-22T04:52:05;1.30;99.90
22114;DHT22;11223;49.968;9.062;2023-11-22T04:54:31;1.40;99.90
22114;DHT22;11223;49.968;9.062;2023-11-22T04:56:57;1.40;99.90
22114;DHT22;11223;49.968;9.062;2023-11-22T04:59:22;1.40;99.90
22114;DHT22;11223;49.968;9.062;2023-11-22T05:01:48;1.40;99.90
22114;DHT22;11223;49.968;9.062;2023-11-22T05:04:14;1.40;99.90
22114;DHT22;11223;49.968;9.062;2023-11-22T05:06:39;1.40;99.90
22114;DHT22;11223;49.968;9.062;2023-11-22T05:09:05;1.30;99.90
22114;DHT22;11223;49.968;9.062;2023-11-22T05:11:31;1.30;99.90
22114;DHT22;11223;49.968;9.062;2023-11-22T05:13:57;1.20;99.90
22114;DHT22;11223;49.968;9.062;2023-11-22T05:16:22;1.30;99.90
22114;DHT22;11223;49.968;9.062;2023-11-22T05:18:49;1.30;99.90
22114;DHT22;11223;49.968;9.062;2023-11-22T05:21:15;1.20;99.90
22114;DHT22;11223;49.968;9.062;2023-11-22T05:23:40;1.20;99.90
22114;DHT22;11223;49.968;9.062;2023-11-22T05:26:06;1.10;99.90
22114;DHT22;11223;49.968;9.062;2023-11-22T05:28:31;1.10;99.90
22114;DHT22;11223;49.968;9.062;2023-11-22T05:30:57;1.00;99.90
22114;DHT22;11223;49.968;9.062;2023-11-22T05:33:22;1.00;99.90
22114;DHT22;11223;49.968;9.062;2023-11-22T05:35:49;1.00;99.90
22114;DHT22;11223;49.968;9.062;2023-11-22T05:38:14;0.90;99.90
22114;DHT22;11223;49.968;9.062;2023-11-22T05:40:40;1.00;99.90
22114;DHT22;11223;49.968;9.062;2023-11-22T05:43:08;1.00;99.90
22114;DHT22;11223;49.968;9.062;2023-11-22T05:45:34;0.90;99.90
22114;DHT22;11223;49.968;9.062;2023-11-22T05:48:00;0.90;99.90
22114;DHT22;11223;49.968;9.062;2023-11-22T05:50:25;0.90;99.90
22114;DHT22;11223;49.968;9.062;2023-11-22T05:52:51;0.90;99.90
22114;DHT22;11223;49.968;9.062;2023-11-22T05:55:16;0.90;99.90
22114;DHT22;11223;49.968;9.062;2023-11-22T05:57:43;0.90;99.90
22114;DHT22;11223;49.968;9.062;2023-11-22T06:00:09;0.90;99.90
22114;DHT22;11223;49.968;9.062;2023-11-22T06:02:34;0.90;99.90
22114;DHT22;11223;49.968;9.062;2023-11-22T06:05:01;0.80;99.90
22114;DHT22;11223;49.968;9.062;2023-11-22T06:07:27;0.70;99.90
22114;DHT22;11223;49.968;9.062;2023-11-22T06:09:52;0.70;99.90
22114;DHT22;11223;49.968;9.062;2023-11-22T06:12:18;0.70;99.90
22114;DHT22;11223;49.968;9.062;2023-11-22T06:14:46;0.70;99.90
22114;DHT22;11223;49.968;9.062;2023-11-22T06:17:12;0.80;99.90
22114;DHT22;11223;49.968;9.062;2023-11-22T06:19:37;0.80;99.90
22114;DHT22;11223;49.968;9.062;2023-11-22T06:22:03;0.70;99.90
22114;DHT22;11223;49.968;9.062;2023-11-22T06:24:28;0.70;99.90
22114;DHT22;11223;49.968;9.062;2023-11-22T06:26:54;0.60;99.90
22114;DHT22;11223;49.968;9.062;2023-11-22T06:29:20;0.60;99.90
22114;DHT22;11223;49.968;9.062;2023-11-22T06:31:45;0.50;99.90
22114;DHT22;11223;49.968;9.062;2023-11-22T06:34:11;0.40;99.90
22114;DHT22;11223;49.968;9.062;2023-11-22T06:36:37;0.30;99.90
22114;DHT22;11223;49.968;9.062;2023-11-22T06:39:03;0.30;99.90
22114;DHT22;11223;49.968;9.062;2023-11-22T06:41:30;0.20;99.90
22114;DHT22;11223;49.968;9.062;2023-11-22T06:43:56;0.20;99.90
22114;DHT22;11223;49.968;9.062;2023-11-22T06:46:21;0.20;99.90
22114;DHT22;11223;49.968;9.062;2023-11-22T06:48:48;0.20;99.90
22114;DHT22;11223;49.968;9.062;2023-11-22T06:51:14;0.20;99.90
22114;DHT22;11223;49.968;9.062;2023-11-22T06:53:40;0.20;99.90
22114;DHT22;11223;49.968;9.062;2023-11-22T06:56:06;0.30;99.90
22114;DHT22;11223;49.968;9.062;2023-11-22T06:58:31;0.30;99.90
22114;DHT22;11223;49.968;9.062;2023-11-22T07:00:57;0.40;99.90
22114;DHT22;11223;49.968;9.062;2023-11-22T07:03:22;0.40;99.90
22114;DHT22;11223;49.968;9.062;2023-11-22T07:05:48;0.40;99.90
22114;DHT22;11223;49.968;9.062;2023-11-22T07:08:13;0.40;99.90
22114;DHT22;11223;49.968;9.062;2023-11-22T07:10:41;0.40;99.90
22114;DHT22;11223;49.968;9.062;2023-11-22T07:13:07;0.40;99.90
22114;DHT22;11223;49.968;9.062;2023-11-22T07:15:32;0.40;99.90
22114;DHT22;11223;49.968;9.062;2023-11-22T07:17:58;0.50;99.90
22114;DHT22;11223;49.968;9.062;2023-11-22T07:20:24;0.50;99.90
22114;DHT22;11223;49.968;9.062;2023-11-22T07:22:49;0.50;99.90
22114;DHT22;11223;49.968;9.062;2023-11-22T07:25:23;0.60;99.90
22114;DHT22;11223;49.968;9.062;2023-11-22T07:27:50;0.80;99.90
22114;DHT22;11223;49.968;9.062;2023-11-22T07:30:16;0.80;99.90
22114;DHT22;11223;49.968;9.062;2023-11-22T07:32:44;1.00;99.90
22114;DHT22;11223;49.968;9.062;2023-11-22T07:35:10;1.00;99.90
22114;DHT22;11223;49.968;9.062;2023-11-22T07:37:37;1.10;99.90
22114;DHT22;11223;49.968;9.062;2023-11-22T07:40:08;1.10;99.90
22114;DHT22;11223;49.968;9.062;2023-11-22T07:42:35;1.20;99.90
22114;DHT22;11223;49.968;9.062;2023-11-22T07:45:00;1.20;99.90
22114;DHT22;11223;49.968;9.062;2023-11-22T07:47:27;1.30;99.90
22114;DHT22;11223;49.968;9.062;2023-11-22T07:49:53;1.30;99.90
22114;DHT22;11223;49.968;9.062;2023-11-22T07:52:21;1.50;99.90
22114;DHT22;11223;49.968;9.062;2023-11-22T07:54:46;1.70;99.90
22114;DHT22;11223;49.968;9.062;2023-11-22T07:57:12;1.80;99.90
22114;DHT22;11223;49.968;9.062;2023-11-22T07:59:38;1.90;99.90
22114;DHT22;11223;49.968;9.062;2023-11-22T08:02:04;2.00;99.90
22114;DHT22;11223;49.968;9.062;2023-11-22T08:04:33;2.10;99.90
22114;DHT22;11223;49.968;9.062;2023-11-22T08:06:58;2.20;99.90
22114;DHT22;11223;49.968;9.062;2023-11-22T08:09:24;2.20;99.90
22114;DHT22;11223;49.968;9.062;2023-11-22T08:11:49;2.10;99.90
22114;DHT22;11223;49.968;9.062;2023-11-22T08:14:15;2.10;99.90
22114;DHT22;11223;49.968;9.062;2023-11-22T08:16:41;2.20;99.90
22114;DHT22;11223;49.968;9.062;2023-11-22T08:19:08;2.20;99.90
22114;DHT22;11223;49.968;9.062;2023-11-22T08:21:34;2.30;99.90
22114;DHT22;11223;49.968;9.062;2023-11-22T08:24:00;2.30;99.90
22114;DHT22;11223;49.968;9.062;2023-11-22T08:26:25;2.30;99.90
22114;DHT22;11223;49.968;9.062;2023-11-22T08:28:51;2.40;99.90
22114;DHT22;11223;49.968;9.062;2023-11-22T08:31:17;2.50;99.90
22114;DHT22;11223;49.968;9.062;2023-11-22T08:33:42;2.70;99.90
22114;DHT22;11223;49.968;9.062;2023-11-22T08:36:08;3.20;99.90
22114;DHT22;11223;49.968;9.062;2023-11-22T08:38:34;3.80;99.90
22114;DHT22;11223;49.968;9.062;2023-11-22T08:41:01;4.30;99.90
22114;DHT22;11223;49.968;9.062;2023-11-22T08:43:27;4.50;99.90
22114;DHT22;11223;49.968;9.062;2023-11-22T08:45:52;5.00;99.90
22114;DHT22;11223;49.968;9.062;2023-11-22T08:48:18;5.50;99.90
22114;DHT22;11223;49.968;9.062;2023-11-22T08:50:43;6.10;99.90
22114;DHT22;11223;49.968;9.062;2023-11-22T08:53:10;6.70;99.90
22114;DHT22;11223;49.968;9.062;2023-11-22T08:55:35;7.00;99.90
22114;DHT22;11223;49.968;9.062;2023-11-22T08:58:01;7.40;99.90
22114;DHT22;11223;49.968;9.062;2023-11-22T09:00:26;7.70;99.90
22114;DHT22;11223;49.968;9.062;2023-11-22T09:02:54;7.60;99.90
22114;DHT22;11223;49.968;9.062;2023-11-22T09:05:22;8.10;99.90
22114;DHT22;11223;49.968;9.062;2023-11-22T09:07:48;8.50;99.90
22114;DHT22;11223;49.968;9.062;2023-11-22T09:10:14;8.90;99.90
22114;DHT22;11223;49.968;9.062;2023-11-22T09:12:41;9.40;98.00
22114;DHT22;11223;49.968;9.062;2023-11-22T09:17:35;9.90;95.90
22114;DHT22;11223;49.968;9.062;2023-11-22T09:20:01;10.10;93.30
22114;DHT22;11223;49.968;9.062;2023-11-22T09:22:28;10.50;92.80
22114;DHT22;11223;49.968;9.062;2023-11-22T09:24:53;10.70;92.80
22114;DHT22;11223;49.968;9.062;2023-11-22T09:27:19;10.10;92.40
22114;DHT22;11223;49.968;9.062;2023-11-22T09:29:45;10.30;91.60
22114;DHT22;11223;49.968;9.062;2023-11-22T09:32:11;10.40;91.50
22114;DHT22;11223;49.968;9.062;2023-11-22T09:34:38;9.80;91.10
22114;DHT22;11223;49.968;9.062;2023-11-22T09:37:03;9.30;92.80
22114;DHT22;11223;49.968;9.062;2023-11-22T09:39:29;9.20;93.00
22114;DHT22;11223;49.968;9.062;2023-11-22T09:41:55;9.50;93.80
22114;DHT22;11223;49.968;9.062;2023-11-22T09:44:20;9.60;92.90
22114;DHT22;11223;49.968;9.062;2023-11-22T09:46:47;9.40;92.40
22114;DHT22;11223;49.968;9.062;2023-11-22T09:49:15;9.30;91.40
22114;DHT22;11223;49.968;9.062;2023-11-22T09:51:42;8.90;91.10
22114;DHT22;11223;49.968;9.062;2023-11-22T09:54:09;8.40;91.60
22114;DHT22;11223;49.968;9.062;2023-11-22T09:56:37;7.80;92.10
22114;DHT22;11223;49.968;9.062;2023-11-22T09:59:03;7.30;92.90
22114;DHT22;11223;49.968;9.062;2023-11-22T10:01:29;7.00;93.70
22114;DHT22;11223;49.968;9.062;2023-11-22T10:03:56;6.60;94.30
22114;DHT22;11223;49.968;9.062;2023-11-22T10:06:22;6.20;95.00
22114;DHT22;11223;49.968;9.062;2023-11-22T10:08:47;5.90;96.10
22114;DHT22;11223;49.968;9.062;2023-11-22T10:11:14;5.70;97.00
22114;DHT22;11223;49.968;9.062;2023-11-22T10:13:40;5.60;97.50
22114;DHT22;11223;49.968;9.062;2023-11-22T10:16:09;5.50;98.50
22114;DHT22;11223;49.968;9.062;2023-11-22T10:18:37;5.50;98.80
22114;DHT22;11223;49.968;9.062;2023-11-22T10:21:04;5.70;98.50
22114;DHT22;11223;49.968;9.062;2023-11-22T10:23:43;5.90;98.40
22114;DHT22;11223;49.968;9.062;2023-11-22T10:26:09;5.90;97.80
22114;DHT22;11223;49.968;9.062;2023-11-22T10:28:34;5.80;98.60
22114;DHT22;11223;49.968;9.062;2023-11-22T10:31:00;5.80;98.60
22114;DHT22;11223;49.968;9.062;2023-11-22T10:33:25;5.90;99.30
22114;DHT22;11223;49.968;9.062;2023-11-22T10:35:51;6.00;98.80
22114;DHT22;11223;49.968;9.062;2023-11-22T10:38:18;5.70;99.30
22114;DHT22;11223;49.968;9.062;2023-11-22T10:40:44;5.60;99.90
22114;DHT22;11223;49.968;9.062;2023-11-22T10:43:16;5.60;99.00
22114;DHT22;11223;49.968;9.062;2023-11-22T10:45:43;5.60;99.10
22114;DHT22;11223;49.968;9.062;2023-11-22T10:48:18;5.50;98.50
22114;DHT22;11223;49.968;9.062;2023-11-22T10:50:47;5.30;99.90
22114;DHT22;11223;49.968;9.062;2023-11-22T10:53:12;5.30;99.90
22114;DHT22;11223;49.968;9.062;2023-11-22T10:55:46;5.20;99.90
22114;DHT22;11223;49.968;9.062;2023-11-22T10:58:13;5.10;99.90
22114;DHT22;11223;49.968;9.062;2023-11-22T11:00:40;5.00;99.90
22114;DHT22;11223;49.968;9.062;2023-11-22T11:03:20;5.00;99.90
22114;DHT22;11223;49.968;9.062;2023-11-22T11:05:50;4.90;99.90
22114;DHT22;11223;49.968;9.062;2023-11-22T11:08:17;4.70;99.90
22114;DHT22;11223;49.968;9.062;2023-11-22T11:10:46;4.60;99.90
22114;DHT22;11223;49.968;9.062;2023-11-22T11:13:11;4.70;99.90
22114;DHT22;11223;49.968;9.062;2023-11-22T11:15:38;4.70;99.90
22114;DHT22;11223;49.968;9.062;2023-11-22T11:18:07;4.70;99.90
22114;DHT22;11223;49.968;9.062;2023-11-22T11:20:45;4.70;99.90
22114;DHT22;11223;49.968;9.062;2023-11-22T11:23:19;4.70;99.90
22114;DHT22;11223;49.968;9.062;2023-11-22T11:25:48;4.70;99.90
22114;DHT22;11223;49.968;9.062;2023-11-22T11:28:14;4.70;99.90
22114;DHT22;11223;49.968;9.062;2023-11-22T11:33:06;4.70;99.90
22114;DHT22;11223;49.968;9.062;2023-11-22T11:35:39;4.60;99.90
22114;DHT22;11223;49.968;9.062;2023-11-22T11:38:04;4.60;99.90
22114;DHT22;11223;49.968;9.062;2023-11-22T11:40:33;4.40;99.90
22114;DHT22;11223;49.968;9.062;2023-11-22T11:42:59;4.40;99.90
22114;DHT22;11223;49.968;9.062;2023-11-22T11:45:25;4.40;99.90
22114;DHT22;11223;49.968;9.062;2023-11-22T11:47:52;4.50;99.90
22114;DHT22;11223;49.968;9.062;2023-11-22T11:50:17;4.40;99.90
22114;DHT22;11223;49.968;9.062;2023-11-22T11:52:43;4.40;99.90
22114;DHT22;11223;49.968;9.062;2023-11-22T11:55:08;4.50;99.90
22114;DHT22;11223;49.968;9.062;2023-11-22T11:57:34;4.50;99.90
22114;DHT22;11223;49.968;9.062;2023-11-22T12:00:01;4.50;99.90
22114;DHT22;11223;49.968;9.062;2023-11-22T12:02:29;4.50;99.90
22114;DHT22;11223;49.968;9.062;2023-11-22T12:04:54;4.50;99.90
22114;DHT22;11223;49.968;9.062;2023-11-22T12:07:20;4.60;99.90
22114;DHT22;11223;49.968;9.062;2023-11-22T12:09:45;4.50;99.90
22114;DHT22;11223;49.968;9.062;2023-11-22T12:12:12;4.60;99.90
22114;DHT22;11223;49.968;9.062;2023-11-22T12:14:38;4.60;99.90
22114;DHT22;11223;49.968;9.062;2023-11-22T12:17:04;4.60;99.90
22114;DHT22;11223;49.968;9.062;2023-11-22T12:19:31;4.60;99.90
22114;DHT22;11223;49.968;9.062;2023-11-22T12:21:57;4.60;99.90
22114;DHT22;11223;49.968;9.062;2023-11-22T12:24:23;4.60;99.90
22114;DHT22;11223;49.968;9.062;2023-11-22T12:26:49;4.50;99.90
22114;DHT22;11223;49.968;9.062;2023-11-22T12:29:15;4.50;99.90
22114;DHT22;11223;49.968;9.062;2023-11-22T12:31:47;4.50;99.90
22114;DHT22;11223;49.968;9.062;2023-11-22T12:34:16;4.40;99.90
22114;DHT22;11223;49.968;9.062;2023-11-22T12:36:41;4.30;99.90
22114;DHT22;11223;49.968;9.062;2023-11-22T12:39:10;4.20;99.90
22114;DHT22;11223;49.968;9.062;2023-11-22T12:41:44;4.20;99.90
22114;DHT22;11223;49.968;9.062;2023-11-22T12:44:10;4.20;99.90
22114;DHT22;11223;49.968;9.062;2023-11-22T12:49:10;4.40;99.90
22114;DHT22;11223;49.968;9.062;2023-11-22T12:51:36;4.50;99.90
22114;DHT22;11223;49.968;9.062;2023-11-22T12:54:01;4.50;99.90
22114;DHT22;11223;49.968;9.062;2023-11-22T12:56:27;4.50;99.90
22114;DHT22;11223;49.968;9.062;2023-11-22T12:58:53;4.50;99.90
22114;DHT22;11223;49.968;9.062;2023-11-22T13:01:19;4.50;99.90
22114;DHT22;11223;49.968;9.062;2023-11-22T13:03:45;4.40;99.90
22114;DHT22;11223;49.968;9.062;2023-11-22T13:06:11;4.50;99.90
22114;DHT22;11223;49.968;9.062;2023-11-22T13:08:36;4.50;99.90
22114;DHT22;11223;49.968;9.062;2023-11-22T13:11:02;4.60;99.90
22114;DHT22;11223;49.968;9.062;2023-11-22T13:13:28;4.70;99.90
22114;DHT22;11223;49.968;9.062;2023-11-22T13:15:55;4.80;99.90
22114;DHT22;11223;49.968;9.062;2023-11-22T13:18:20;4.80;99.90
22114;DHT22;11223;49.968;9.062;2023-11-22T13:20:46;4.80;99.90
22114;DHT22;11223;49.968;9.062;2023-11-22T13:23:12;4.80;99.90
22114;DHT22;11223;49.968;9.062;2023-11-22T13:25:39;4.80;99.90
22114;DHT22;11223;49.968;9.062;2023-11-22T13:28:04;4.80;99.90
22114;DHT22;11223;49.968;9.062;2023-11-22T13:30:31;4.80;99.90
22114;DHT22;11223;49.968;9.062;2023-11-22T13:32:57;4.70;99.90
22114;DHT22;11223;49.968;9.062;2023-11-22T13:35:23;4.60;99.90
22114;DHT22;11223;49.968;9.062;2023-11-22T13:37:49;4.60;99.90
22114;DHT22;11223;49.968;9.062;2023-11-22T13:40:16;4.60;99.90
22114;DHT22;11223;49.968;9.062;2023-11-22T13:45:07;4.50;99.90
22114;DHT22;11223;49.968;9.062;2023-11-22T13:47:33;4.50;99.90
22114;DHT22;11223;49.968;9.062;2023-11-22T13:49:58;4.50;99.90
22114;DHT22;11223;49.968;9.062;2023-11-22T13:52:24;4.50;99.90
22114;DHT22;11223;49.968;9.062;2023-11-22T13:54:49;4.50;99.90
22114;DHT22;11223;49.968;9.062;2023-11-22T13:57:17;4.50;99.90
22114;DHT22;11223;49.968;9.062;2023-11-22T13:59:42;4.50;99.90
22114;DHT22;11223;49.968;9.062;2023-11-22T14:02:08;4.60;99.90
22114;DHT22;11223;49.968;9.062;2023-11-22T14:04:33;4.60;99.90
22114;DHT22;11223;49.968;9.062;2023-11-22T14:06:59;4.50;99.90
22114;DHT22;11223;49.968;9.062;2023-11-22T14:09:25;4.40;99.90
22114;DHT22;11223;49.968;9.062;2023-11-22T14:11:52;4.40;99.90
22114;DHT22;11223;49.968;9.062;2023-11-22T14:14:18;4.40;99.90
22114;DHT22;11223;49.968;9.062;2023-11-22T14:16:44;4.30;99.90
22114;DHT22;11223;49.968;9.062;2023-11-22T14:19:11;4.30;99.90
22114;DHT22;11223;49.968;9.062;2023-11-22T14:21:36;4.20;99.90
22114;DHT22;11223;49.968;9.062;2023-11-22T14:24:02;4.20;99.90
22114;DHT22;11223;49.968;9.062;2023-11-22T14:26:27;4.00;99.90
22114;DHT22;11223;49.968;9.062;2023-11-22T14:28:53;3.90;99.90
22114;DHT22;11223;49.968;9.062;2023-11-22T14:31:18;3.80;99.90
22114;DHT22;11223;49.968;9.062;2023-11-22T14:33:44;3.70;99.90
22114;DHT22;11223;49.968;9.062;2023-11-22T14:36:09;3.80;99.90
22114;DHT22;11223;49.968;9.062;2023-11-22T14:38:35;3.80;99.90
22114;DHT22;11223;49.968;9.062;2023-11-22T14:41:01;3.90;99.90
22114;DHT22;11223;49.968;9.062;2023-11-22T14:43:28;4.00;99.90
22114;DHT22;11223;49.968;9.062;2023-11-22T14:45:54;4.00;99.90
22114;DHT22;11223;49.968;9.062;2023-11-22T14:48:20;3.90;99.90
22114;DHT22;11223;49.968;9.062;2023-11-22T14:50:46;3.90;99.90
22114;DHT22;11223;49.968;9.062;2023-11-22T14:53:13;3.90;99.90
22114;DHT22;11223;49.968;9.062;2023-11-22T14:55:39;3.90;99.90
22114;DHT22;11223;49.968;9.062;2023-11-22T14:58:07;3.80;99.90
22114;DHT22;11223;49.968;9.062;2023-11-22T15:00:33;3.80;99.90
22114;DHT22;11223;49.968;9.062;2023-11-22T15:02:59;3.60;99.90
22114;DHT22;11223;49.968;9.062;2023-11-22T15:05:24;3.50;99.90
22114;DHT22;11223;49.968;9.062;2023-11-22T15:07:52;3.40;99.90
22114;DHT22;11223;49.968;9.062;2023-11-22T15:10:21;3.40;99.90
22114;DHT22;11223;49.968;9.062;2023-11-22T15:12:47;3.20;99.90
22114;DHT22;11223;49.968;9.062;2023-11-22T15:15:13;3.10;99.90
22114;DHT22;11223;49.968;9.062;2023-11-22T15:17:39;2.90;99.90
22114;DHT22;11223;49.968;9.062;2023-11-22T15:20:05;2.80;99.90
22114;DHT22;11223;49.968;9.062;2023-11-22T15:22:34;2.60;99.90
22114;DHT22;11223;49.968;9.062;2023-11-22T15:25:00;2.50;99.90
22114;DHT22;11223;49.968;9.062;2023-11-22T15:27:25;2.40;99.90
22114;DHT22;11223;49.968;9.062;2023-11-22T15:29:51;2.30;99.90
22114;DHT22;11223;49.968;9.062;2023-11-22T15:32:16;2.20;99.90
22114;DHT22;11223;49.968;9.062;2023-11-22T15:34:42;2.10;99.90
22114;DHT22;11223;49.968;9.062;2023-11-22T15:37:07;2.00;99.90
22114;DHT22;11223;49.968;9.062;2023-11-22T15:39:36;1.80;99.90
22114;DHT22;11223;49.968;9.062;2023-11-22T15:42:02;1.70;99.90
22114;DHT22;11223;49.968;9.062;2023-11-22T15:44:31;1.60;99.90
22114;DHT22;11223;49.968;9.062;2023-11-22T15:46:56;1.60;99.90
22114;DHT22;11223;49.968;9.062;2023-11-22T15:49:22;1.50;99.90